windsock image

Welcome to Bigfield Strip.

anemometer image

 Help for dials.  
Local Met:

10 Min average:  
271 ° / 1.1 kts (0.0)
269° / 1.8

12.8°C C
Dew Point:  
10.8°C C
1030.6 mb mb
BigField Strip. This image updates approximately every minute, it can have a two minute delay.  

88 %
Sunrise:   06:49z
Sunset:   16:44z
   More met info, trends, radar, history etc. available here   

LUTON Metar   EGGW 271820Z AUTO 22009KT 9999 OVC017 12/10 Q1030
  TAF   2016/10/27 18:15 TAF EGGW 271657Z 2718/2818 24011KT 9999 FEW012 SCT018 PROB30 TEMPO 2723/2812 BKN012 BECMG 2811/2814 30006KT TEMPO 2811/2818 BKN008
BENSON Metar   EGUB 271750Z 20006KT 9999 SCT030 12/10 Q1031 BLU NOSIG
  TAF   2016/10/27 18:03 TAF TAF EGUB 271637Z 2718/2723 22008KT 9999 FEW022 BKN030 PROB30 TEMPO 2721/2723 SCT012
Big Field view 1 icon   Big Field view 2 icon   Big Field view 3 icon   Chart AL3a in PDF icon   Chart AL3a in Word icon

This information is provided by the Airstrip unofficial weather station, DO NOT depend on the data provided here for any purpose.
This page is updated for latest Metars & TAF's every 5 minutes. Refresh the browser to check for the lastest.
Page designed for a minimum browser size of 1024x768.
© Copyright 2016 BigField Strip. This page auto generated 18:31 UTC - 27/10/2016   Contact Us
Valid HTML 4.01 Transitional     Windows uptime: 3 Days 15 Hours 59 Minutes 22 Seconds    WD started: 02:37 24/10/16    Free memory: 1456MB     Valid CSS!